CFG3653 EDDL-LIMJ
Flight info
| Callsign | CFG3653 |
|---|---|
| Flight time | 1h 16m |
| Altitude | 35000 |
| Route | DODEN1T DODEN Y852 NATOR DCT TRA DCT RIPUS DCT GERSA DCT SOSON DCT ODINA DCT SRN/N0379F190 M858 VOG |
| Aircraft | A321/M-SDE3FGIJ1LORVWXYZ/LB1 |
Departure
| Time | 2026-04-15 15:07 |
|---|---|
| Airport | Düsseldorf Airport (EDDL) |
Arrival
| Time | 2026-04-15 16:23 |
|---|---|
| Airport | Genoa Cristoforo Colombo Airport (LIMJ) |
| Time | Latitude | Longitude | Altitude | Speed | Heading |
|---|---|---|---|---|---|
| 2026-04-15 14:42 | 51.27908 | 6.76248 | 129 ft | 0 kts | 60° |
| 2026-04-15 14:56 | 51.27906 | 6.76243 | 128 ft | 3 kts | 60° |
| 2026-04-15 14:56 | 51.27893 | 6.76207 | 128 ft | 4 kts | 58° |
| 2026-04-15 14:56 | 51.27878 | 6.76171 | 128 ft | 4 kts | 56° |
| 2026-04-15 14:56 | 51.27862 | 6.76136 | 124 ft | 4 kts | 53° |
| 2026-04-15 14:57 | 51.27845 | 6.76102 | 128 ft | 4 kts | 47° |
| 2026-04-15 14:57 | 51.27826 | 6.76072 | 132 ft | 4 kts | 36° |
| 2026-04-15 14:57 | 51.27804 | 6.76051 | 123 ft | 4 kts | 17° |
| 2026-04-15 14:57 | 51.27777 | 6.76043 | 125 ft | 4 kts | 2° |
| 2026-04-15 14:58 | 51.27760 | 6.76043 | 129 ft | 0 kts | 1° |
| 2026-04-15 15:00 | 51.27765 | 6.76043 | 129 ft | 1 kts | 1° |
| 2026-04-15 15:00 | 51.27782 | 6.76043 | 129 ft | 6 kts | 1° |
| 2026-04-15 15:00 | 51.27854 | 6.76046 | 124 ft | 12 kts | 1° |
| 2026-04-15 15:01 | 51.27934 | 6.76048 | 128 ft | 11 kts | 1° |
| 2026-04-15 15:01 | 51.28005 | 6.76047 | 126 ft | 10 kts | 357° |
| 2026-04-15 15:01 | 51.28065 | 6.76077 | 128 ft | 10 kts | 44° |
| 2026-04-15 15:01 | 51.28102 | 6.76154 | 123 ft | 8 kts | 53° |
| 2026-04-15 15:02 | 51.28133 | 6.76218 | 123 ft | 7 kts | 52° |
| 2026-04-15 15:02 | 51.28178 | 6.76251 | 123 ft | 10 kts | 347° |
| 2026-04-15 15:02 | 51.28245 | 6.76265 | 126 ft | 11 kts | 47° |
| 2026-04-15 15:02 | 51.28289 | 6.76357 | 128 ft | 10 kts | 53° |
| 2026-04-15 15:03 | 51.28317 | 6.76417 | 126 ft | 10 kts | 53° |
| 2026-04-15 15:03 | 51.28360 | 6.76506 | 120 ft | 10 kts | 52° |
| 2026-04-15 15:03 | 51.28425 | 6.76641 | 122 ft | 21 kts | 53° |
| 2026-04-15 15:03 | 51.28534 | 6.76868 | 125 ft | 30 kts | 53° |
| 2026-04-15 15:04 | 51.28657 | 6.77128 | 127 ft | 29 kts | 53° |
| 2026-04-15 15:04 | 51.28775 | 6.77375 | 128 ft | 27 kts | 52° |
| 2026-04-15 15:04 | 51.28887 | 6.77612 | 128 ft | 26 kts | 53° |
| 2026-04-15 15:04 | 51.28994 | 6.77836 | 126 ft | 25 kts | 53° |
| 2026-04-15 15:05 | 51.29095 | 6.78046 | 130 ft | 23 kts | 52° |
| 2026-04-15 15:05 | 51.29168 | 6.78189 | 135 ft | 10 kts | 41° |
| 2026-04-15 15:05 | 51.29218 | 6.78214 | 137 ft | 6 kts | 359° |
| 2026-04-15 15:05 | 51.29251 | 6.78197 | 137 ft | 4 kts | 332° |
| 2026-04-15 15:06 | 51.29284 | 6.77976 | 137 ft | 24 kts | 232° |
| 2026-04-15 15:06 | 51.29058 | 6.77509 | 127 ft | 88 kts | 232° |
| 2026-04-15 15:06 | 51.28557 | 6.76457 | 127 ft | 144 kts | 233° |
| 2026-04-15 15:07 | 51.27882 | 6.75048 | 417 ft | 163 kts | 231° |
| 2026-04-15 15:07 | 51.27214 | 6.73580 | 1153 ft | 162 kts | 231° |
| 2026-04-15 15:07 | 51.26550 | 6.72112 | 1792 ft | 164 kts | 230° |
| 2026-04-15 15:07 | 51.25829 | 6.70619 | 2079 ft | 182 kts | 230° |
| 2026-04-15 15:08 | 51.25000 | 6.68901 | 2230 ft | 207 kts | 231° |
| 2026-04-15 15:08 | 51.24085 | 6.66938 | 2458 ft | 233 kts | 231° |
| 2026-04-15 15:08 | 51.23049 | 6.64808 | 2912 ft | 249 kts | 223° |
| 2026-04-15 15:08 | 51.21531 | 6.63542 | 3638 ft | 252 kts | 187° |
| 2026-04-15 15:09 | 51.19766 | 6.63549 | 4467 ft | 255 kts | 176° |
| 2026-04-15 15:09 | 51.17995 | 6.63819 | 5271 ft | 258 kts | 174° |
| 2026-04-15 15:09 | 51.16206 | 6.64187 | 6032 ft | 261 kts | 169° |
| 2026-04-15 15:09 | 51.14522 | 6.65436 | 6737 ft | 271 kts | 141° |
| 2026-04-15 15:10 | 51.13385 | 6.67840 | 7388 ft | 279 kts | 113° |
| 2026-04-15 15:10 | 51.13074 | 6.70914 | 8027 ft | 287 kts | 88° |
| 2026-04-15 15:10 | 51.13195 | 6.74103 | 8735 ft | 290 kts | 87° |
| 2026-04-15 15:10 | 51.13328 | 6.77342 | 9379 ft | 295 kts | 87° |
| 2026-04-15 15:11 | 51.13459 | 6.80624 | 10047 ft | 299 kts | 87° |
| 2026-04-15 15:11 | 51.13589 | 6.83970 | 10469 ft | 312 kts | 87° |
| 2026-04-15 15:11 | 51.13725 | 6.87542 | 10605 ft | 334 kts | 87° |
| 2026-04-15 15:11 | 51.13871 | 6.91367 | 10733 ft | 355 kts | 87° |
| 2026-04-15 15:12 | 51.14023 | 6.95385 | 10988 ft | 369 kts | 87° |
| 2026-04-15 15:12 | 51.14176 | 6.99505 | 11511 ft | 375 kts | 87° |
| 2026-04-15 15:12 | 51.14328 | 7.03668 | 12097 ft | 379 kts | 87° |
| 2026-04-15 15:12 | 51.14480 | 7.07895 | 12708 ft | 383 kts | 87° |
| 2026-04-15 15:13 | 51.14628 | 7.12137 | 13327 ft | 387 kts | 88° |
| 2026-04-15 15:13 | 51.14775 | 7.16440 | 13891 ft | 391 kts | 88° |
| 2026-04-15 15:13 | 51.14924 | 7.20789 | 14416 ft | 395 kts | 88° |
| 2026-04-15 15:13 | 51.15070 | 7.25169 | 14947 ft | 398 kts | 88° |
| 2026-04-15 15:14 | 51.15216 | 7.29588 | 15461 ft | 402 kts | 88° |
| 2026-04-15 15:14 | 51.15361 | 7.34043 | 15979 ft | 405 kts | 88° |
| 2026-04-15 15:14 | 51.15279 | 7.38541 | 16462 ft | 408 kts | 99° |
| 2026-04-15 15:14 | 51.14614 | 7.42939 | 16956 ft | 410 kts | 111° |
| 2026-04-15 15:15 | 51.13401 | 7.47034 | 17436 ft | 410 kts | 123° |
| 2026-04-15 15:15 | 51.11702 | 7.50673 | 17887 ft | 411 kts | 134° |
| 2026-04-15 15:15 | 51.09663 | 7.53850 | 18356 ft | 413 kts | 139° |
| 2026-04-15 15:15 | 51.07578 | 7.57015 | 18785 ft | 416 kts | 139° |
| 2026-04-15 15:16 | 51.05481 | 7.60204 | 19232 ft | 417 kts | 138° |
| 2026-04-15 15:16 | 51.03382 | 7.63412 | 19675 ft | 419 kts | 138° |
| 2026-04-15 15:16 | 51.01254 | 7.66668 | 20081 ft | 422 kts | 138° |
| 2026-04-15 15:16 | 50.99151 | 7.69868 | 20477 ft | 424 kts | 138° |
| 2026-04-15 15:17 | 50.96950 | 7.73084 | 20863 ft | 426 kts | 143° |
| 2026-04-15 15:17 | 50.94520 | 7.75767 | 21250 ft | 426 kts | 150° |
| 2026-04-15 15:17 | 50.91988 | 7.78256 | 21630 ft | 429 kts | 150° |
| 2026-04-15 15:17 | 50.89444 | 7.80755 | 22014 ft | 432 kts | 150° |
| 2026-04-15 15:18 | 50.86876 | 7.83277 | 22391 ft | 435 kts | 150° |
| 2026-04-15 15:18 | 50.84330 | 7.85775 | 22777 ft | 438 kts | 150° |
| 2026-04-15 15:18 | 50.81697 | 7.88356 | 23171 ft | 441 kts | 150° |
| 2026-04-15 15:18 | 50.79077 | 7.90924 | 23559 ft | 444 kts | 150° |
| 2026-04-15 15:19 | 50.76442 | 7.93509 | 23903 ft | 447 kts | 150° |
| 2026-04-15 15:19 | 50.73794 | 7.96108 | 24211 ft | 449 kts | 150° |
| 2026-04-15 15:19 | 50.71107 | 7.98745 | 24473 ft | 453 kts | 150° |
| 2026-04-15 15:19 | 50.68438 | 8.01353 | 24738 ft | 456 kts | 150° |
| 2026-04-15 15:20 | 50.65736 | 8.03982 | 25034 ft | 458 kts | 150° |
| 2026-04-15 15:20 | 50.62983 | 8.06534 | 25325 ft | 459 kts | 155° |
| 2026-04-15 15:20 | 50.60042 | 8.08473 | 25632 ft | 458 kts | 165° |
| 2026-04-15 15:20 | 50.56949 | 8.09661 | 25920 ft | 457 kts | 173° |
| 2026-04-15 15:21 | 50.53793 | 8.10164 | 26193 ft | 458 kts | 178° |
| 2026-04-15 15:21 | 50.50601 | 8.10563 | 26498 ft | 460 kts | 178° |
| 2026-04-15 15:21 | 50.47411 | 8.10980 | 26785 ft | 462 kts | 178° |
| 2026-04-15 15:21 | 50.44197 | 8.11407 | 27063 ft | 465 kts | 177° |
| 2026-04-15 15:22 | 50.40972 | 8.11837 | 27368 ft | 466 kts | 178° |
| 2026-04-15 15:22 | 50.37728 | 8.12270 | 27646 ft | 469 kts | 178° |
| 2026-04-15 15:22 | 50.34467 | 8.12702 | 27925 ft | 471 kts | 178° |
| 2026-04-15 15:22 | 50.31202 | 8.13129 | 28210 ft | 472 kts | 178° |
| 2026-04-15 15:23 | 50.27982 | 8.13546 | 28474 ft | 474 kts | 178° |
| 2026-04-15 15:23 | 50.24678 | 8.13973 | 28739 ft | 476 kts | 178° |
| 2026-04-15 15:23 | 50.21387 | 8.14401 | 29096 ft | 475 kts | 178° |
| 2026-04-15 15:23 | 50.18094 | 8.14829 | 29446 ft | 474 kts | 178° |
| 2026-04-15 15:24 | 50.14804 | 8.15258 | 29795 ft | 474 kts | 178° |
| 2026-04-15 15:24 | 50.11490 | 8.15693 | 30116 ft | 474 kts | 177° |
| 2026-04-15 15:24 | 50.08244 | 8.16135 | 30405 ft | 474 kts | 177° |
| 2026-04-15 15:24 | 50.04947 | 8.16594 | 30702 ft | 474 kts | 177° |
| 2026-04-15 15:25 | 50.01609 | 8.17068 | 30998 ft | 473 kts | 177° |
| 2026-04-15 15:25 | 49.98336 | 8.17533 | 31303 ft | 473 kts | 177° |
| 2026-04-15 15:25 | 49.95057 | 8.17997 | 31607 ft | 472 kts | 177° |
| 2026-04-15 15:25 | 49.91799 | 8.18454 | 31912 ft | 471 kts | 177° |
| 2026-04-15 15:26 | 49.88525 | 8.18909 | 32195 ft | 471 kts | 177° |
| 2026-04-15 15:26 | 49.85263 | 8.19351 | 32423 ft | 472 kts | 177° |
| 2026-04-15 15:26 | 49.81984 | 8.19794 | 32661 ft | 473 kts | 177° |
| 2026-04-15 15:26 | 49.78679 | 8.20247 | 32941 ft | 473 kts | 177° |
| 2026-04-15 15:27 | 49.75436 | 8.20697 | 33235 ft | 472 kts | 177° |
| 2026-04-15 15:27 | 49.72163 | 8.21151 | 33532 ft | 472 kts | 177° |
| 2026-04-15 15:27 | 49.68898 | 8.21602 | 33828 ft | 471 kts | 177° |
| 2026-04-15 15:27 | 49.66689 | 8.21908 | 34012 ft | 471 kts | 177° |
| 2026-04-15 15:28 | 49.59201 | 8.22939 | 34578 ft | 470 kts | 177° |
| 2026-04-15 15:28 | 49.55938 | 8.23384 | 34804 ft | 470 kts | 177° |
| 2026-04-15 15:28 | 49.52724 | 8.23823 | 35030 ft | 470 kts | 177° |
| 2026-04-15 15:29 | 49.49463 | 8.24268 | 35158 ft | 470 kts | 177° |
| 2026-04-15 15:29 | 49.46219 | 8.24709 | 35186 ft | 468 kts | 177° |
| 2026-04-15 15:29 | 49.39727 | 8.25585 | 35182 ft | 467 kts | 177° |
| 2026-04-15 15:30 | 49.33256 | 8.26456 | 35186 ft | 467 kts | 177° |
| 2026-04-15 15:30 | 49.26777 | 8.27330 | 35189 ft | 467 kts | 177° |
| 2026-04-15 15:31 | 49.20299 | 8.28200 | 35174 ft | 467 kts | 177° |
| 2026-04-15 15:31 | 49.13823 | 8.29074 | 35180 ft | 468 kts | 177° |
| 2026-04-15 15:32 | 49.07327 | 8.29957 | 35185 ft | 469 kts | 177° |
| 2026-04-15 15:32 | 49.00825 | 8.30829 | 35192 ft | 469 kts | 177° |
| 2026-04-15 15:33 | 48.94323 | 8.31406 | 35190 ft | 468 kts | 181° |
| 2026-04-15 15:33 | 48.87814 | 8.31405 | 35193 ft | 467 kts | 183° |
| 2026-04-15 15:34 | 48.81313 | 8.31305 | 35195 ft | 467 kts | 182° |
| 2026-04-15 15:34 | 48.74806 | 8.31336 | 35183 ft | 467 kts | 181° |
| 2026-04-15 15:35 | 48.68303 | 8.31454 | 35183 ft | 467 kts | 181° |
| 2026-04-15 15:35 | 48.61801 | 8.31567 | 35186 ft | 468 kts | 181° |
| 2026-04-15 15:36 | 48.55297 | 8.31649 | 35193 ft | 468 kts | 181° |
| 2026-04-15 15:36 | 48.48789 | 8.31720 | 35198 ft | 468 kts | 181° |
| 2026-04-15 15:37 | 48.42279 | 8.31803 | 35198 ft | 468 kts | 181° |
| 2026-04-15 15:37 | 48.35771 | 8.31890 | 35202 ft | 468 kts | 181° |
| 2026-04-15 15:38 | 48.29256 | 8.31975 | 35195 ft | 468 kts | 181° |
| 2026-04-15 15:38 | 48.22746 | 8.32057 | 35193 ft | 468 kts | 181° |
| 2026-04-15 15:39 | 48.17328 | 8.32180 | 35193 ft | 469 kts | 177° |
| 2026-04-15 15:39 | 48.10851 | 8.33616 | 35184 ft | 470 kts | 172° |
| 2026-04-15 15:40 | 48.04392 | 8.35198 | 35194 ft | 471 kts | 172° |
| 2026-04-15 15:40 | 47.97924 | 8.36758 | 35196 ft | 471 kts | 172° |
| 2026-04-15 15:41 | 47.91456 | 8.38310 | 35192 ft | 471 kts | 172° |
| 2026-04-15 15:41 | 47.85005 | 8.39869 | 35195 ft | 471 kts | 172° |
| 2026-04-15 15:42 | 47.78508 | 8.41429 | 35202 ft | 471 kts | 172° |
| 2026-04-15 15:42 | 47.72033 | 8.42968 | 35212 ft | 471 kts | 172° |
| 2026-04-15 15:43 | 47.65537 | 8.44385 | 35179 ft | 472 kts | 174° |
| 2026-04-15 15:43 | 47.58988 | 8.45335 | 35190 ft | 473 kts | 176° |
| 2026-04-15 15:44 | 47.52414 | 8.46149 | 35200 ft | 475 kts | 176° |
| 2026-04-15 15:44 | 47.45834 | 8.47069 | 35201 ft | 475 kts | 175° |
| 2026-04-15 15:45 | 47.39252 | 8.48058 | 35204 ft | 476 kts | 175° |
| 2026-04-15 15:45 | 47.32670 | 8.49044 | 35212 ft | 476 kts | 175° |
| 2026-04-15 15:46 | 47.26078 | 8.49995 | 35213 ft | 475 kts | 175° |
| 2026-04-15 15:46 | 47.19493 | 8.50943 | 35211 ft | 476 kts | 175° |
| 2026-04-15 15:47 | 47.12900 | 8.51904 | 35213 ft | 476 kts | 175° |
| 2026-04-15 15:47 | 47.06292 | 8.52870 | 35202 ft | 476 kts | 175° |
| 2026-04-15 15:48 | 46.99689 | 8.53824 | 35200 ft | 477 kts | 175° |
| 2026-04-15 15:48 | 46.93108 | 8.54763 | 35187 ft | 477 kts | 175° |
| 2026-04-15 15:49 | 46.86492 | 8.55720 | 35180 ft | 478 kts | 175° |
| 2026-04-15 15:49 | 46.79874 | 8.56672 | 35169 ft | 478 kts | 175° |
| 2026-04-15 15:50 | 46.73257 | 8.57613 | 35152 ft | 478 kts | 174° |
| 2026-04-15 15:50 | 46.66627 | 8.58575 | 35152 ft | 479 kts | 174° |
| 2026-04-15 15:51 | 46.59987 | 8.59527 | 35138 ft | 480 kts | 174° |
| 2026-04-15 15:51 | 46.53343 | 8.60457 | 35141 ft | 480 kts | 174° |
| 2026-04-15 15:52 | 46.46687 | 8.61393 | 35136 ft | 480 kts | 174° |
| 2026-04-15 15:52 | 46.39996 | 8.62347 | 35123 ft | 481 kts | 174° |
| 2026-04-15 15:53 | 46.33328 | 8.63288 | 35125 ft | 481 kts | 174° |
| 2026-04-15 15:53 | 46.26662 | 8.64220 | 35127 ft | 481 kts | 174° |
| 2026-04-15 15:54 | 46.19996 | 8.65148 | 35116 ft | 481 kts | 174° |
| 2026-04-15 15:54 | 46.13320 | 8.66189 | 35121 ft | 481 kts | 168° |
| 2026-04-15 15:55 | 46.07007 | 8.69202 | 35114 ft | 478 kts | 151° |
| 2026-04-15 15:55 | 46.01212 | 8.73737 | 35126 ft | 477 kts | 149° |
| 2026-04-15 15:56 | 45.95332 | 8.78329 | 35123 ft | 478 kts | 149° |
| 2026-04-15 15:56 | 45.89474 | 8.82892 | 35119 ft | 479 kts | 149° |
| 2026-04-15 15:57 | 45.83596 | 8.87453 | 35120 ft | 481 kts | 149° |
| 2026-04-15 15:57 | 45.77755 | 8.91988 | 35116 ft | 481 kts | 149° |
| 2026-04-15 15:58 | 45.71826 | 8.96577 | 35121 ft | 481 kts | 149° |
| 2026-04-15 15:58 | 45.65706 | 9.00485 | 35130 ft | 485 kts | 163° |
| 2026-04-15 15:59 | 45.59020 | 9.01720 | 35144 ft | 488 kts | 181° |
| 2026-04-15 15:59 | 45.52234 | 9.01191 | 35136 ft | 489 kts | 182° |
| 2026-04-15 16:00 | 45.45475 | 9.00683 | 35128 ft | 490 kts | 182° |
| 2026-04-15 16:00 | 45.38613 | 9.00181 | 35132 ft | 491 kts | 182° |
| 2026-04-15 16:01 | 45.31785 | 8.99677 | 35119 ft | 492 kts | 182° |
| 2026-04-15 16:01 | 45.24941 | 8.99160 | 35120 ft | 493 kts | 182° |
| 2026-04-15 16:02 | 45.18090 | 8.98634 | 35123 ft | 494 kts | 182° |
| 2026-04-15 16:02 | 45.11229 | 8.98117 | 35131 ft | 494 kts | 182° |
| 2026-04-15 16:03 | 45.04362 | 8.97603 | 34902 ft | 494 kts | 182° |
| 2026-04-15 16:03 | 45.00897 | 8.97345 | 33680 ft | 504 kts | 181° |
| 2026-04-15 16:03 | 44.97372 | 8.97067 | 32343 ft | 508 kts | 184° |
| 2026-04-15 16:04 | 44.93859 | 8.96343 | 30853 ft | 513 kts | 191° |
| 2026-04-15 16:04 | 44.90372 | 8.95381 | 30200 ft | 506 kts | 191° |
| 2026-04-15 16:04 | 44.86913 | 8.94436 | 29081 ft | 507 kts | 191° |
| 2026-04-15 16:04 | 44.83454 | 8.93501 | 28108 ft | 505 kts | 190° |
| 2026-04-15 16:05 | 44.80050 | 8.92587 | 27585 ft | 492 kts | 190° |
| 2026-04-15 16:05 | 44.76712 | 8.91690 | 26918 ft | 483 kts | 190° |
| 2026-04-15 16:05 | 44.73441 | 8.90809 | 26292 ft | 475 kts | 190° |
| 2026-04-15 16:05 | 44.70227 | 8.89944 | 25665 ft | 467 kts | 190° |
| 2026-04-15 16:06 | 44.67065 | 8.89096 | 25071 ft | 459 kts | 190° |
| 2026-04-15 16:06 | 44.63947 | 8.88264 | 24470 ft | 452 kts | 190° |
| 2026-04-15 16:06 | 44.60881 | 8.87446 | 23877 ft | 445 kts | 190° |
| 2026-04-15 16:06 | 44.57862 | 8.86646 | 23183 ft | 439 kts | 190° |
| 2026-04-15 16:07 | 44.54868 | 8.85855 | 21946 ft | 438 kts | 190° |
| 2026-04-15 16:07 | 44.51935 | 8.85076 | 21255 ft | 425 kts | 190° |
| 2026-04-15 16:07 | 44.46360 | 8.83591 | 20343 ft | 397 kts | 190° |
| 2026-04-15 16:08 | 44.43651 | 8.82876 | 19895 ft | 397 kts | 190° |
| 2026-04-15 16:08 | 44.40925 | 8.82314 | 19457 ft | 394 kts | 183° |
| 2026-04-15 16:08 | 44.38195 | 8.82122 | 19005 ft | 391 kts | 182° |
| 2026-04-15 16:08 | 44.35487 | 8.81931 | 18558 ft | 389 kts | 183° |
| 2026-04-15 16:09 | 44.32793 | 8.81734 | 18063 ft | 386 kts | 183° |
| 2026-04-15 16:09 | 44.30141 | 8.81542 | 17622 ft | 382 kts | 182° |
| 2026-04-15 16:09 | 44.27491 | 8.81355 | 17175 ft | 377 kts | 183° |
| 2026-04-15 16:09 | 44.24887 | 8.81170 | 16726 ft | 374 kts | 182° |
| 2026-04-15 16:10 | 44.22295 | 8.80989 | 16272 ft | 371 kts | 182° |
| 2026-04-15 16:10 | 44.19724 | 8.80867 | 15810 ft | 368 kts | 177° |
| 2026-04-15 16:10 | 44.17208 | 8.81425 | 15341 ft | 365 kts | 162° |
| 2026-04-15 16:10 | 44.14900 | 8.82826 | 14887 ft | 360 kts | 147° |
| 2026-04-15 16:11 | 44.12938 | 8.84948 | 14409 ft | 357 kts | 133° |
| 2026-04-15 16:11 | 44.11423 | 8.87663 | 13929 ft | 355 kts | 119° |
| 2026-04-15 16:11 | 44.10396 | 8.90762 | 13408 ft | 352 kts | 110° |
| 2026-04-15 16:11 | 44.09480 | 8.93908 | 12919 ft | 350 kts | 111° |
| 2026-04-15 16:12 | 44.08557 | 8.97026 | 12431 ft | 348 kts | 111° |
| 2026-04-15 16:12 | 44.07636 | 9.00130 | 11928 ft | 346 kts | 111° |
| 2026-04-15 16:12 | 44.06718 | 9.03219 | 11422 ft | 345 kts | 111° |
| 2026-04-15 16:12 | 44.05801 | 9.06306 | 10910 ft | 345 kts | 111° |
| 2026-04-15 16:13 | 44.04958 | 9.09366 | 10747 ft | 332 kts | 104° |
| 2026-04-15 16:13 | 44.04675 | 9.12459 | 10622 ft | 317 kts | 87° |
| 2026-04-15 16:13 | 44.05027 | 9.15416 | 10498 ft | 304 kts | 71° |
| 2026-04-15 16:13 | 44.05918 | 9.18004 | 10351 ft | 292 kts | 56° |
| 2026-04-15 16:14 | 44.07228 | 9.20111 | 10181 ft | 283 kts | 44° |
| 2026-04-15 16:14 | 44.08619 | 9.21986 | 10057 ft | 273 kts | 41° |
| 2026-04-15 16:14 | 44.10216 | 9.23248 | 9912 ft | 264 kts | 14° |
| 2026-04-15 16:14 | 44.12031 | 9.23286 | 9780 ft | 264 kts | 345° |
| 2026-04-15 16:15 | 44.13640 | 9.22086 | 9650 ft | 266 kts | 316° |
| 2026-04-15 16:15 | 44.14798 | 9.20074 | 9516 ft | 267 kts | 310° |
| 2026-04-15 16:15 | 44.16253 | 9.18536 | 9196 ft | 265 kts | 342° |
| 2026-04-15 16:15 | 44.18055 | 9.18132 | 8751 ft | 263 kts | 3° |
| 2026-04-15 16:16 | 44.19842 | 9.18580 | 8370 ft | 261 kts | 20° |
| 2026-04-15 16:16 | 44.21522 | 9.19523 | 8021 ft | 258 kts | 22° |
| 2026-04-15 16:16 | 44.23180 | 9.20440 | 7664 ft | 256 kts | 22° |
| 2026-04-15 16:16 | 44.24839 | 9.21342 | 7221 ft | 254 kts | 22° |
| 2026-04-15 16:17 | 44.26474 | 9.22228 | 6568 ft | 251 kts | 22° |
| 2026-04-15 16:17 | 44.28066 | 9.23075 | 6175 ft | 238 kts | 19° |
| 2026-04-15 16:17 | 44.29695 | 9.23336 | 5886 ft | 233 kts | 351° |
| 2026-04-15 16:17 | 44.31269 | 9.22554 | 5659 ft | 251 kts | 329° |
| 2026-04-15 16:18 | 44.32532 | 9.20912 | 5378 ft | 250 kts | 306° |
| 2026-04-15 16:18 | 44.33259 | 9.18707 | 5064 ft | 251 kts | 290° |
| 2026-04-15 16:18 | 44.33810 | 9.16408 | 4715 ft | 250 kts | 290° |
| 2026-04-15 16:18 | 44.34349 | 9.14109 | 4355 ft | 248 kts | 289° |
| 2026-04-15 16:19 | 44.34707 | 9.12567 | 4133 ft | 246 kts | 289° |
| 2026-04-15 16:19 | 44.35229 | 9.10306 | 3796 ft | 243 kts | 289° |
| 2026-04-15 16:19 | 44.35739 | 9.08093 | 3459 ft | 241 kts | 290° |
| 2026-04-15 16:19 | 44.36248 | 9.05882 | 3121 ft | 236 kts | 290° |
| 2026-04-15 16:20 | 44.36741 | 9.03743 | 2796 ft | 229 kts | 291° |
| 2026-04-15 16:20 | 44.37222 | 9.01655 | 2481 ft | 222 kts | 291° |
| 2026-04-15 16:20 | 44.37684 | 8.99642 | 2169 ft | 215 kts | 290° |
| 2026-04-15 16:20 | 44.38129 | 8.97706 | 1900 ft | 202 kts | 290° |
| 2026-04-15 16:21 | 44.38540 | 8.95911 | 1613 ft | 186 kts | 289° |
| 2026-04-15 16:21 | 44.38915 | 8.94269 | 1360 ft | 170 kts | 291° |
| 2026-04-15 16:21 | 44.39266 | 8.92741 | 1132 ft | 156 kts | 290° |
| 2026-04-15 16:21 | 44.39591 | 8.91330 | 905 ft | 149 kts | 292° |
| 2026-04-15 16:22 | 44.39905 | 8.89963 | 713 ft | 145 kts | 293° |
| 2026-04-15 16:22 | 44.40218 | 8.88642 | 504 ft | 141 kts | 293° |
| 2026-04-15 16:22 | 44.40534 | 8.87346 | 281 ft | 142 kts | 293° |
| 2026-04-15 16:22 | 44.40833 | 8.86029 | 114 ft | 142 kts | 290° |
| 2026-04-15 16:23 | 44.41087 | 8.84734 | 22 ft | 129 kts | 286° |
| 2026-04-15 16:23 | 44.41285 | 8.83728 | 22 ft | 76 kts | 285° |
| 2026-04-15 16:23 | 44.41397 | 8.83197 | 21 ft | 28 kts | 298° |
| 2026-04-15 16:23 | 44.41515 | 8.83097 | 21 ft | 15 kts | 19° |
| 2026-04-15 16:24 | 44.41539 | 8.83214 | 21 ft | 11 kts | 105° |
| 2026-04-15 16:24 | 44.41524 | 8.83291 | 21 ft | 8 kts | 105° |
| 2026-04-15 16:24 | 44.41511 | 8.83358 | 22 ft | 7 kts | 105° |
| 2026-04-15 16:24 | 44.41500 | 8.83415 | 23 ft | 5 kts | 105° |
| 2026-04-15 16:25 | 44.41489 | 8.83468 | 21 ft | 8 kts | 105° |
| 2026-04-15 16:25 | 44.41466 | 8.83586 | 20 ft | 17 kts | 105° |
| 2026-04-15 16:25 | 44.41425 | 8.83789 | 20 ft | 26 kts | 103° |
| 2026-04-15 16:25 | 44.41372 | 8.84067 | 20 ft | 31 kts | 105° |
| 2026-04-15 16:26 | 44.41315 | 8.84354 | 20 ft | 30 kts | 105° |
| 2026-04-15 16:26 | 44.41261 | 8.84635 | 20 ft | 30 kts | 105° |
| 2026-04-15 16:26 | 44.41224 | 8.84820 | 21 ft | 11 kts | 105° |
| 2026-04-15 16:26 | 44.41224 | 8.84905 | 20 ft | 8 kts | 51° |
| 2026-04-15 16:27 | 44.41271 | 8.84931 | 20 ft | 7 kts | 17° |
| 2026-04-15 16:27 | 44.41322 | 8.84950 | 20 ft | 8 kts | 17° |
| 2026-04-15 16:27 | 44.41342 | 8.85008 | 22 ft | 7 kts | 95° |
| 2026-04-15 16:27 | 44.41336 | 8.85062 | 20 ft | 4 kts | 76° |
| 2026-04-15 16:28 | 44.41358 | 8.85083 | 20 ft | 4 kts | 26° |
| 2026-04-15 16:28 | 44.41380 | 8.85095 | 21 ft | 3 kts | 25° |
| 2026-04-15 16:28 | 44.41397 | 8.85103 | 20 ft | 1 kts | 18° |
| 2026-04-15 16:28 | 44.41402 | 8.85105 | 20 ft | 0 kts | 17° |